Time;durP1;ratioP1;P1;durP2;ratioP2;P2;SDS_P1;SDS_P2;PMS_P1;PMS_P2;Temp;Humidity;BMP_temperature;BMP_pressure;BME280_temperature;BME280_humidity;BME280_pressure;Samples;Min_cycle;Max_cycle;Signal;HPM_P1;HPM_P2
2022/04/06 04:02:08;;;;;;;21.58;13.38;;;8.70;99.90;;;;;;5152645;23;20902;-68
2022/04/06 04:04:35;;;;;;;26.13;16.27;;;8.70;99.90;;;;;;4966524;28;20208;-70
2022/04/06 04:07:02;;;;;;;29.33;16.02;;;8.70;99.90;;;;;;4974828;28;20267;-68
2022/04/06 04:09:29;;;;;;;31.27;15.40;;;8.70;99.90;;;;;;4974926;28;20295;-69
2022/04/06 04:11:56;;;;;;;33.55;14.90;;;8.70;99.90;;;;;;4970266;28;20221;-69
2022/04/06 04:14:23;;;;;;;27.02;15.60;;;8.70;99.90;;;;;;4951513;28;20221;-69
2022/04/06 04:16:49;;;;;;;30.98;17.10;;;8.70;99.90;;;;;;4948102;29;20198;-69
2022/04/06 04:19:17;;;;;;;26.30;15.98;;;8.70;99.90;;;;;;4955539;28;20295;-69
2022/04/06 04:21:44;;;;;;;31.48;18.88;;;8.80;99.90;;;;;;4955752;28;20307;-68
2022/04/06 04:24:11;;;;;;;25.77;16.25;;;8.80;99.90;;;;;;4939840;28;20210;-69
2022/04/06 04:26:39;;;;;;;32.17;17.45;;;8.80;99.90;;;;;;4954429;29;20210;-68
2022/04/06 04:29:07;;;;;;;35.97;18.20;;;8.80;99.90;;;;;;4953606;28;20209;-68
2022/04/06 04:31:34;;;;;;;31.25;18.23;;;8.80;99.90;;;;;;4952827;28;20225;-68
2022/04/06 04:34:01;;;;;;;30.70;18.02;;;8.80;99.90;;;;;;4954599;28;20278;-68
2022/04/06 04:36:29;;;;;;;33.70;19.38;;;8.80;99.90;;;;;;4954604;28;20917;-68
2022/04/06 04:38:56;;;;;;;29.23;17.58;;;8.80;99.90;;;;;;4954103;28;20756;-68
2022/04/06 04:41:23;;;;;;;30.17;18.77;;;8.90;99.90;;;;;;4954245;28;20225;-68
2022/04/06 04:43:51;;;;;;;33.92;18.60;;;8.90;99.90;;;;;;4954145;28;20201;-68
2022/04/06 04:46:17;;;;;;;34.03;19.52;;;8.90;99.90;;;;;;4954523;28;20299;-68
2022/04/06 04:48:45;;;;;;;30.55;18.77;;;8.90;99.90;;;;;;4954126;28;20260;-69
2022/04/06 04:51:11;;;;;;;37.45;20.35;;;8.90;99.90;;;;;;4953978;28;20229;-69
2022/04/06 04:53:41;;;;;;;36.13;18.02;;;8.90;99.90;;;;;;4953767;28;20621;-69
2022/04/06 04:56:08;;;;;;;37.03;18.65;;;8.90;99.90;;;;;;4955608;28;20650;-69
2022/04/06 04:58:35;;;;;;;38.28;20.30;;;9.00;99.90;;;;;;4951580;28;20206;-69
2022/04/06 05:01:01;;;;;;;32.95;19.45;;;8.90;99.90;;;;;;4954124;28;20244;-69
2022/04/06 05:03:28;;;;;;;32.55;21.25;;;9.00;99.90;;;;;;4951955;28;20205;-69
2022/04/06 05:05:56;;;;;;;40.83;20.80;;;9.00;99.90;;;;;;4953816;28;20271;-69
2022/04/06 05:08:23;;;;;;;39.08;19.67;;;9.00;99.90;;;;;;4955791;28;20284;-69
2022/04/06 05:10:51;;;;;;;36.55;21.80;;;9.00;99.90;;;;;;4952251;28;20237;-69
2022/04/06 05:13:18;;;;;;;42.03;21.02;;;9.00;99.90;;;;;;4953262;28;20225;-69
2022/04/06 05:15:45;;;;;;;38.53;22.80;;;9.00;99.90;;;;;;4954350;28;20302;-69
2022/04/06 05:18:12;;;;;;;39.40;20.50;;;9.00;99.90;;;;;;4953843;28;20213;-69
2022/04/06 05:20:39;;;;;;;40.58;21.60;;;9.00;99.90;;;;;;4942018;28;20225;-68
2022/04/06 05:23:06;;;;;;;34.65;21.52;;;9.00;99.90;;;;;;4936973;29;20260;-68
2022/04/06 05:25:32;;;;;;;36.10;20.38;;;9.10;99.90;;;;;;4935304;29;20259;-68
2022/04/06 05:28:01;;;;;;;40.70;23.17;;;9.10;99.90;;;;;;4947913;29;20224;-68
2022/04/06 05:30:29;;;;;;;34.90;21.52;;;9.10;99.90;;;;;;4953727;28;20233;-68
2022/04/06 05:32:57;;;;;;;37.88;23.30;;;9.10;99.90;;;;;;4952835;28;20316;-68
2022/04/06 05:35:26;;;;;;;39.95;22.20;;;9.10;99.90;;;;;;4952040;28;20220;-68
2022/04/06 05:37:55;;;;;;;45.42;25.20;;;9.10;99.90;;;;;;4950752;28;20264;-68
2022/04/06 05:40:22;;;;;;;50.50;25.25;;;9.10;99.90;;;;;;4933865;29;20218;-69
2022/04/06 05:42:48;;;;;;;35.65;22.52;;;9.10;99.90;;;;;;4953671;28;20201;-68
2022/04/06 05:45:17;;;;;;;46.13;23.95;;;9.10;99.90;;;;;;4938646;28;20210;-68
2022/04/06 05:47:44;;;;;;;51.22;25.50;;;9.20;99.90;;;;;;4952238;29;20578;-68
2022/04/06 05:50:13;;;;;;;38.55;23.70;;;9.20;99.90;;;;;;4943009;28;20269;-68
2022/04/06 05:52:40;;;;;;;36.97;23.48;;;9.20;99.90;;;;;;4951573;29;20292;-68
2022/04/06 05:55:07;;;;;;;42.88;22.80;;;9.20;99.90;;;;;;4953172;28;20236;-69
2022/04/06 05:57:35;;;;;;;48.85;25.00;;;9.20;99.90;;;;;;4953616;28;20216;-68
2022/04/06 06:00:01;;;;;;;39.70;23.77;;;9.30;99.90;;;;;;4952601;28;20216;-69
2022/04/06 06:02:30;;;;;;;46.78;22.95;;;9.30;99.90;;;;;;4959512;28;20260;-69
2022/04/06 06:04:56;;;;;;;45.90;23.45;;;9.30;99.90;;;;;;4951211;28;20321;-69
2022/04/06 06:07:23;;;;;;;37.45;22.58;;;9.40;99.90;;;;;;4952577;28;20300;-69
2022/04/06 06:09:50;;;;;;;40.55;21.10;;;9.40;99.90;;;;;;4951449;28;20205;-68
2022/04/06 06:12:16;;;;;;;42.40;23.98;;;9.40;99.90;;;;;;4953218;28;20221;-68
2022/04/06 06:14:43;;;;;;;35.67;20.33;;;9.40;99.90;;;;;;4962023;28;20645;-68
2022/04/06 06:17:10;;;;;;;39.05;22.02;;;9.40;99.90;;;;;;4954052;28;20209;-69
2022/04/06 06:19:38;;;;;;;38.17;21.77;;;9.40;99.90;;;;;;4959755;28;20674;-68
2022/04/06 06:22:05;;;;;;;36.10;19.80;;;9.40;99.90;;;;;;4952650;28;20239;-69
2022/04/06 06:24:32;;;;;;;37.53;21.77;;;9.40;99.90;;;;;;4941805;28;20597;-69
2022/04/06 06:26:59;;;;;;;31.50;18.98;;;9.40;99.90;;;;;;4935133;29;20202;-69
2022/04/06 06:29:26;;;;;;;30.10;18.60;;;9.50;99.90;;;;;;4949428;29;20253;-68
2022/04/06 06:31:52;;;;;;;26.58;16.63;;;9.50;99.90;;;;;;4937977;28;20281;-68
2022/04/06 06:34:19;;;;;;;27.63;19.30;;;9.50;99.90;;;;;;4947883;29;20228;-68
2022/04/06 06:36:47;;;;;;;29.70;18.00;;;9.50;99.90;;;;;;4952761;28;20209;-69
2022/04/06 06:39:13;;;;;;;27.45;16.20;;;9.50;99.90;;;;;;4952064;28;20216;-68
2022/04/06 06:41:42;;;;;;;26.70;15.38;;;9.50;99.90;;;;;;4951730;28;20240;-68
2022/04/06 06:44:09;;;;;;;28.90;16.75;;;9.60;99.90;;;;;;4950418;28;20631;-68
2022/04/06 06:46:36;;;;;;;23.10;14.45;;;9.60;99.90;;;;;;4952134;28;20217;-69
2022/04/06 06:49:03;;;;;;;24.27;15.18;;;9.60;99.90;;;;;;4949311;28;20209;-68
2022/04/06 06:51:31;;;;;;;23.45;15.88;;;9.60;99.90;;;;;;4947846;28;20317;-68
2022/04/06 06:54:00;;;;;;;24.75;15.00;;;9.70;99.90;;;;;;4940359;28;20225;-68
2022/04/06 06:56:27;;;;;;;38.60;21.98;;;9.70;99.90;;;;;;4948607;28;20202;-68
2022/04/06 06:58:54;;;;;;;23.90;17.40;;;9.80;99.90;;;;;;4934257;29;20206;-68
2022/04/06 07:01:21;;;;;;;18.92;14.00;;;9.80;99.90;;;;;;4944782;29;20236;-68
2022/04/06 07:03:47;;;;;;;21.52;14.48;;;9.80;99.90;;;;;;4952216;28;20268;-68
2022/04/06 07:06:14;;;;;;;17.95;13.32;;;9.90;99.90;;;;;;4944214;28;20263;-68
2022/04/06 07:08:41;;;;;;;22.77;13.85;;;9.90;99.90;;;;;;4955240;28;20202;-67
2022/04/06 07:11:09;;;;;;;21.85;13.90;;;10.00;99.90;;;;;;4951613;28;20299;-68
2022/04/06 07:13:36;;;;;;;20.02;12.95;;;10.10;99.90;;;;;;4936646;28;20225;-68
2022/04/06 07:16:05;;;;;;;22.10;12.80;;;10.10;99.90;;;;;;4951030;28;20213;-68
2022/04/06 07:18:32;;;;;;;17.23;12.57;;;10.20;99.90;;;;;;4946113;28;20205;-68
2022/04/06 07:20:58;;;;;;;19.42;11.90;;;10.20;99.90;;;;;;4951408;28;20225;-68
2022/04/06 07:23:25;;;;;;;16.85;12.82;;;10.20;99.90;;;;;;4955185;28;20546;-68
2022/04/06 07:25:52;;;;;;;15.27;10.55;;;10.20;99.90;;;;;;4962945;28;20228;-68
2022/04/06 07:28:20;;;;;;;20.27;12.70;;;10.10;99.90;;;;;;4952100;28;20248;-68
2022/04/06 07:30:46;;;;;;;19.15;10.90;;;10.10;99.90;;;;;;4948095;28;20324;-68
2022/04/06 07:33:14;;;;;;;15.35;11.52;;;10.00;99.90;;;;;;4952011;28;20219;-68
2022/04/06 07:35:41;;;;;;;16.02;12.00;;;10.00;99.90;;;;;;4951040;28;20202;-68
2022/04/06 07:38:07;;;;;;;14.95;11.75;;;10.10;99.90;;;;;;4944426;28;20617;-68
2022/04/06 07:40:35;;;;;;;18.50;12.68;;;10.10;99.90;;;;;;4949921;29;20237;-68
2022/04/06 07:43:02;;;;;;;18.20;11.68;;;10.10;99.90;;;;;;4951865;28;20296;-68
2022/04/06 07:45:30;;;;;;;16.08;10.95;;;10.10;99.90;;;;;;4937727;28;20253;-66
2022/04/06 07:47:57;;;;;;;14.75;10.23;;;10.10;99.90;;;;;;4940697;29;20202;-69
2022/04/06 07:50:24;;;;;;;15.68;10.23;;;10.10;99.90;;;;;;4940795;29;20208;-69
2022/04/06 07:52:51;;;;;;;15.10;10.60;;;10.00;99.90;;;;;;4942144;29;20213;-68
2022/04/06 07:55:18;;;;;;;17.48;11.38;;;10.10;99.90;;;;;;4951866;28;20241;-68
2022/04/06 07:57:45;;;;;;;18.08;11.30;;;10.00;99.90;;;;;;4951843;28;20209;-68
2022/04/06 08:00:15;;;;;;;15.90;11.45;;;9.90;99.90;;;;;;4951555;28;20324;-68
2022/04/06 08:02:44;;;;;;;15.23;12.23;;;9.90;99.90;;;;;;4952869;28;20217;-68
2022/04/06 08:05:11;;;;;;;16.10;11.52;;;9.90;99.90;;;;;;4955389;28;20743;-68
2022/04/06 08:07:43;;;;;;;16.48;12.13;;;9.90;99.90;;;;;;4955103;28;20585;-68
2022/04/06 08:10:12;;;;;;;24.75;12.90;;;9.90;99.90;;;;;;4961055;28;20650;-68
2022/04/06 08:12:39;;;;;;;16.92;12.10;;;9.90;99.90;;;;;;4974580;28;20262;-69
2022/04/06 08:15:07;;;;;;;22.90;14.60;;;9.90;99.90;;;;;;4970519;28;20688;-68
2022/04/06 08:17:34;;;;;;;14.20;12.05;;;10.10;99.90;;;;;;4953896;29;20291;-69
2022/04/06 08:20:04;;;;;;;14.52;10.88;;;10.10;99.90;;;;;;4954915;28;20217;-68
2022/04/06 08:22:30;;;;;;;13.70;11.45;;;10.20;99.90;;;;;;4954690;28;20261;-69
2022/04/06 08:24:57;;;;;;;16.30;12.43;;;10.30;99.90;;;;;;4955388;28;20849;-69
2022/04/06 08:27:24;;;;;;;14.18;11.35;;;10.40;99.90;;;;;;4954946;28;20224;-69
2022/04/06 08:29:50;;;;;;;23.77;11.75;;;10.50;99.90;;;;;;4954834;28;20315;-69
2022/04/06 08:32:18;;;;;;;19.27;12.20;;;10.60;99.90;;;;;;4954834;28;20272;-68
2022/04/06 08:34:44;;;;;;;20.23;13.02;;;10.70;99.90;;;;;;4955047;28;20225;-69
2022/04/06 08:37:13;;;;;;;17.95;11.15;;;10.80;99.90;;;;;;4954494;28;20213;-69
2022/04/06 08:39:40;;;;;;;13.27;11.82;;;10.90;99.90;;;;;;4954189;28;20256;-69
2022/04/06 08:42:07;;;;;;;13.77;10.20;;;10.90;99.90;;;;;;4954880;28;20288;-68
2022/04/06 08:44:34;;;;;;;11.02;9.20;;;11.00;99.90;;;;;;4954840;28;20205;-68
2022/04/06 08:47:06;;;;;;;12.20;11.00;;;11.10;99.90;;;;;;4954794;28;20213;-68
2022/04/06 08:49:35;;;;;;;14.60;10.52;;;11.20;99.90;;;;;;4955094;28;20213;-69
2022/04/06 08:52:04;;;;;;;12.40;9.15;;;11.30;99.90;;;;;;4954174;28;20333;-69
2022/04/06 08:54:32;;;;;;;15.63;10.95;;;11.30;99.90;;;;;;4954905;28;20616;-68
2022/04/06 08:56:59;;;;;;;11.90;8.70;;;11.20;99.90;;;;;;4954560;28;20232;-69
2022/04/06 08:59:26;;;;;;;10.65;8.40;;;11.20;99.90;;;;;;4954750;28;20244;-68
2022/04/06 09:01:53;;;;;;;12.65;9.38;;;11.20;99.90;;;;;;4953192;28;20273;-69
2022/04/06 09:04:21;;;;;;;9.60;8.63;;;11.10;99.90;;;;;;4952909;28;20288;-69
2022/04/06 09:06:48;;;;;;;13.85;8.55;;;11.10;99.90;;;;;;4967819;28;20646;-68
2022/04/06 09:09:22;;;;;;;15.23;9.15;;;11.10;99.90;;;;;;4974199;28;20217;-69
2022/04/06 09:11:50;;;;;;;12.90;9.85;;;11.10;99.90;;;;;;4969057;28;20244;-69
2022/04/06 09:14:29;;;;;;;9.98;7.43;;;11.10;99.90;;;;;;4959399;28;20236;-68
2022/04/06 09:17:03;;;;;;;11.18;9.40;;;11.00;99.90;;;;;;4971703;28;20212;-68
2022/04/06 09:19:29;;;;;;;13.32;8.40;;;11.00;99.90;;;;;;4954884;28;20233;-68
2022/04/06 09:21:56;;;;;;;10.80;8.70;;;11.00;99.90;;;;;;4954103;28;20233;-69
2022/04/06 09:24:25;;;;;;;8.40;7.15;;;11.00;99.90;;;;;;4953357;28;20209;-69
2022/04/06 09:26:58;;;;;;;8.70;7.50;;;11.00;99.90;;;;;;4954172;28;20240;-69
2022/04/06 09:29:25;;;;;;;8.25;6.72;;;11.00;99.90;;;;;;4953881;28;20308;-69
2022/04/06 09:31:52;;;;;;;13.48;7.53;;;11.10;99.90;;;;;;4953041;28;20233;-69
2022/04/06 09:34:22;;;;;;;12.85;8.45;;;11.10;99.90;;;;;;4954083;28;20236;-69
2022/04/06 09:36:56;;;;;;;6.72;6.20;;;11.10;99.90;;;;;;4954102;28;20244;-69
2022/04/06 09:39:41;;;;;;;7.50;6.60;;;11.20;99.90;;;;;;4945296;28;20300;-69
2022/04/06 09:42:10;;;;;;;7.22;6.57;;;11.10;99.90;;;;;;4953420;28;20221;-69
2022/04/06 09:47:42;;;;;;;8.75;6.53;;;11.10;99.90;;;;;;4953405;29;20260;-69
2022/04/06 09:50:19;;;;;;;7.65;6.78;;;11.00;99.90;;;;;;4953335;28;20212;-69
2022/04/06 09:52:46;;;;;;;7.10;6.50;;;11.10;99.90;;;;;;4953198;28;20227;-69
2022/04/06 09:55:15;;;;;;;9.95;6.50;;;11.10;99.90;;;;;;4953626;28;20245;-69
2022/04/06 09:57:45;;;;;;;9.07;7.07;;;11.10;99.90;;;;;;4953393;28;20209;-68
2022/04/06 10:00:16;;;;;;;7.78;6.60;;;11.10;99.90;;;;;;4952805;28;20295;-69
2022/04/06 10:02:43;;;;;;;6.57;6.07;;;11.00;99.90;;;;;;4953045;28;20295;-69
2022/04/06 10:05:13;;;;;;;13.50;7.72;;;11.10;99.90;;;;;;4953638;28;20209;-69
2022/04/06 10:07:42;;;;;;;6.38;5.82;;;11.10;99.90;;;;;;4952970;28;20244;-69
2022/04/06 10:10:09;;;;;;;6.63;6.07;;;11.10;99.90;;;;;;4952811;28;20216;-69
2022/04/06 10:12:36;;;;;;;7.53;6.93;;;11.20;99.90;;;;;;4953109;28;20296;-69
2022/04/06 10:15:06;;;;;;;7.35;5.10;;;11.30;99.90;;;;;;4937834;28;20222;-69
2022/04/06 10:17:35;;;;;;;6.63;6.05;;;11.40;99.90;;;;;;4953271;28;20654;-69
2022/04/06 10:20:08;;;;;;;9.10;8.13;;;11.40;99.90;;;;;;4964728;28;20204;-69
2022/04/06 10:22:44;;;;;;;7.20;6.38;;;11.40;99.90;;;;;;4955249;28;20225;-69
2022/04/06 10:25:16;;;;;;;8.87;6.40;;;11.40;99.90;;;;;;4934571;29;20261;-68
2022/04/06 10:27:49;;;;;;;7.63;5.23;;;11.40;99.90;;;;;;4939714;28;20465;-69
2022/04/06 10:30:19;;;;;;;6.35;5.78;;;11.50;99.90;;;;;;4933595;29;20568;-69
2022/04/06 10:32:47;;;;;;;5.97;5.30;;;11.50;99.90;;;;;;4935322;29;20210;-69
2022/04/06 10:35:25;;;;;;;6.63;5.57;;;11.50;99.90;;;;;;4952969;28;20489;-69
2022/04/06 10:38:12;;;;;;;6.30;5.70;;;11.50;99.90;;;;;;4953513;28;20229;-69
2022/04/06 10:40:59;;;;;;;5.87;5.40;;;11.60;99.90;;;;;;4952618;28;20229;-69
2022/04/06 10:43:51;;;;;;;5.00;4.60;;;11.70;99.90;;;;;;4951568;28;20910;-69
2022/04/06 10:46:33;;;;;;;5.63;5.10;;;11.70;99.90;;;;;;4963035;28;20468;-68
2022/04/06 10:49:12;;;;;;;7.37;4.90;;;11.60;99.90;;;;;;4967948;28;20482;-69
2022/04/06 10:51:41;;;;;;;5.50;5.10;;;11.60;99.90;;;;;;4959217;28;20515;-69
2022/04/06 10:54:42;;;;;;;5.50;5.00;;;11.60;99.90;;;;;;4951154;28;20516;-69
2022/04/06 10:57:10;;;;;;;10.10;5.27;;;11.60;99.90;;;;;;4946218;28;20476;-69
2022/04/06 10:59:37;;;;;;;7.18;5.18;;;11.60;99.90;;;;;;4951984;28;20473;-69
2022/04/06 11:02:19;;;;;;;6.53;5.30;;;11.60;99.90;;;;;;4946957;28;20293;-69
2022/04/06 11:04:47;;;;;;;5.00;4.10;;;11.50;99.90;;;;;;4937266;29;20288;-69
2022/04/06 11:07:17;;;;;;;5.22;4.72;;;11.50;99.90;;;;;;4949338;28;20201;-69
2022/04/06 11:12:29;;;;;;;5.32;4.93;;;11.40;99.90;;;;;;4944457;28;20236;-69
2022/04/06 11:15:20;;;;;;;7.22;5.57;;;11.50;99.90;;;;;;4949126;28;20362;-68
2022/04/06 11:17:48;;;;;;;5.18;3.63;;;11.40;99.90;;;;;;4945986;28;20291;-67
2022/04/06 11:20:18;;;;;;;6.05;5.13;;;11.40;99.90;;;;;;4951218;28;20213;-68
2022/04/06 11:22:50;;;;;;;4.50;4.30;;;11.50;99.90;;;;;;4937441;28;20256;-69
2022/04/06 11:25:20;;;;;;;7.43;5.05;;;11.50;99.90;;;;;;4933004;29;20481;-70
2022/04/06 11:27:48;;;;;;;6.88;5.38;;;11.60;99.90;;;;;;4943766;28;20205;-69
2022/04/06 11:30:16;;;;;;;5.15;4.68;;;11.60;99.90;;;;;;4945418;29;20563;-68
2022/04/06 11:32:52;;;;;;;9.83;5.07;;;11.60;99.90;;;;;;4937782;28;20222;-69
2022/04/06 11:35:19;;;;;;;5.23;4.83;;;11.70;99.90;;;;;;4935630;28;20941;-69
2022/04/06 11:37:47;;;;;;;5.40;4.13;;;11.80;99.90;;;;;;4942108;28;20617;-69
2022/04/06 11:40:15;;;;;;;8.40;5.10;;;11.90;99.90;;;;;;4948656;28;20469;-69
2022/04/06 11:42:42;;;;;;;5.83;5.30;;;12.00;99.90;;;;;;4955439;29;20516;-70
2022/04/06 11:45:10;;;;;;;4.30;3.83;;;12.10;99.90;;;;;;4941269;28;20508;-70
2022/04/06 11:47:38;;;;;;;4.70;4.40;;;12.20;99.90;;;;;;4944443;29;20464;-70
2022/04/06 11:50:12;;;;;;;5.30;4.97;;;12.20;99.90;;;;;;4956834;28;20468;-69
2022/04/06 11:52:41;;;;;;;5.00;4.27;;;12.20;99.90;;;;;;4941971;29;20468;-69
2022/04/06 11:55:08;;;;;;;5.33;4.80;;;12.30;99.90;;;;;;4945507;28;20481;-69
2022/04/06 11:57:36;;;;;;;5.60;4.80;;;12.30;99.90;;;;;;4952877;28;20938;-69
2022/04/06 12:00:05;;;;;;;4.37;3.97;;;12.50;99.90;;;;;;4952936;28;20464;-69
2022/04/06 12:02:49;;;;;;;4.13;3.93;;;12.40;99.90;;;;;;4951926;29;20496;-69
2022/04/06 12:05:18;;;;;;;4.57;4.27;;;12.30;99.90;;;;;;4945619;28;20457;-68
2022/04/06 12:07:45;;;;;;;5.13;4.53;;;12.30;99.90;;;;;;4963168;28;20839;-69
2022/04/06 12:10:11;;;;;;;5.33;4.77;;;12.30;99.90;;;;;;4938231;28;20516;-69
2022/04/06 12:12:39;;;;;;;4.97;4.60;;;12.20;99.90;;;;;;4953201;28;20484;-68
2022/04/06 12:15:08;;;;;;;5.90;5.30;;;12.10;99.90;;;;;;4946919;28;20543;-68
2022/04/06 12:17:35;;;;;;;6.50;4.57;;;12.00;99.90;;;;;;4959724;28;20943;-68
2022/04/06 12:20:21;;;;;;;5.47;5.07;;;12.00;99.90;;;;;;4966055;28;20463;-69
2022/04/06 12:23:00;;;;;;;8.52;4.90;;;11.90;99.90;;;;;;4956889;28;20514;-68
2022/04/06 12:25:28;;;;;;;5.43;4.83;;;11.90;99.90;;;;;;4952609;28;20201;-69
2022/04/06 12:28:10;;;;;;;5.03;4.35;;;11.90;99.90;;;;;;4941373;28;20584;-69
2022/04/06 12:30:53;;;;;;;5.93;4.65;;;11.80;99.90;;;;;;4952461;28;20598;-69
2022/04/06 12:33:38;;;;;;;8.10;4.93;;;11.70;99.90;;;;;;4946154;29;20777;-71
2022/04/06 12:36:13;;;;;;;7.20;5.78;;;11.70;99.90;;;;;;4949671;28;20265;-71
2022/04/06 12:38:43;;;;;;;5.20;4.80;;;11.70;99.90;;;;;;4954703;28;20293;-71
2022/04/06 12:41:12;;;;;;;7.18;6.45;;;11.70;99.90;;;;;;4954455;28;20321;-71
2022/04/06 12:43:41;;;;;;;6.10;5.45;;;11.60;99.90;;;;;;4954541;28;20219;-71
2022/04/06 12:46:07;;;;;;;4.60;4.20;;;11.60;99.90;;;;;;4954657;28;20856;-71
2022/04/06 12:48:34;;;;;;;6.00;4.20;;;11.60;99.90;;;;;;4954033;28;20559;-71
2022/04/06 12:51:21;;;;;;;6.32;4.43;;;11.60;99.90;;;;;;4953955;28;20236;-71
2022/04/06 12:53:50;;;;;;;4.35;4.15;;;11.50;99.90;;;;;;4954151;28;20578;-71
2022/04/06 12:56:22;;;;;;;4.88;4.45;;;11.50;99.90;;;;;;4951892;28;20402;-71
2022/04/06 12:59:06;;;;;;;4.65;4.30;;;11.50;99.90;;;;;;4954715;28;20276;-71
2022/04/06 13:01:33;;;;;;;9.45;6.28;;;11.50;99.90;;;;;;4953191;28;20272;-71
2022/04/06 13:04:00;;;;;;;5.45;4.45;;;11.60;99.90;;;;;;4954589;28;20246;-71
2022/04/06 13:06:27;;;;;;;7.60;5.60;;;11.60;99.90;;;;;;4953683;28;20205;-71
2022/04/06 13:08:55;;;;;;;5.13;4.72;;;11.70;99.90;;;;;;4953415;28;20619;-71
2022/04/06 13:11:22;;;;;;;5.80;4.72;;;11.70;99.90;;;;;;4934353;29;20254;-70
2022/04/06 13:13:48;;;;;;;4.13;3.73;;;11.80;99.90;;;;;;4935007;29;20214;-70
2022/04/06 13:16:15;;;;;;;6.03;5.53;;;11.80;99.90;;;;;;4934668;29;20493;-70
2022/04/06 13:18:42;;;;;;;7.05;5.32;;;11.80;99.90;;;;;;4934813;29;20206;-70
2022/04/06 13:21:11;;;;;;;4.45;4.07;;;11.70;99.90;;;;;;4934500;29;20241;-70
2022/04/06 13:23:38;;;;;;;4.45;4.05;;;11.70;99.90;;;;;;4934707;29;20214;-70
2022/04/06 13:26:06;;;;;;;4.80;4.30;;;11.70;99.90;;;;;;4935220;29;20617;-71
2022/04/06 13:28:32;;;;;;;5.90;4.95;;;11.70;99.90;;;;;;4934837;29;20221;-70
2022/04/06 13:31:01;;;;;;;5.83;5.37;;;11.70;99.90;;;;;;4947933;29;20229;-70
2022/04/06 13:33:27;;;;;;;5.75;4.88;;;11.70;99.90;;;;;;4953752;28;20464;-70
2022/04/06 13:35:55;;;;;;;4.95;4.55;;;11.70;99.90;;;;;;4953968;28;20329;-70
2022/04/06 13:38:22;;;;;;;7.93;7.20;;;11.70;99.90;;;;;;4945840;28;20237;-70
2022/04/06 13:40:49;;;;;;;4.90;4.50;;;11.80;99.90;;;;;;4951746;28;20241;-70
2022/04/06 13:43:16;;;;;;;5.22;4.72;;;11.80;99.90;;;;;;4956805;28;20567;-70
2022/04/06 13:45:43;;;;;;;4.95;4.55;;;11.80;99.90;;;;;;4954058;28;20595;-70
2022/04/06 13:48:10;;;;;;;6.10;5.60;;;11.80;99.90;;;;;;4953849;28;20577;-70
2022/04/06 13:50:37;;;;;;;4.80;4.53;;;11.70;99.90;;;;;;4953096;28;20229;-70
2022/04/06 13:53:05;;;;;;;6.75;4.97;;;11.60;99.90;;;;;;4939349;28;20224;-70
2022/04/06 13:55:31;;;;;;;4.68;4.22;;;11.60;99.90;;;;;;4934284;29;20229;-70
2022/04/06 13:57:58;;;;;;;5.28;3.90;;;11.60;99.90;;;;;;4934473;29;20239;-70
2022/04/06 14:00:26;;;;;;;6.13;3.92;;;11.50;99.90;;;;;;4932868;29;20257;-70
2022/04/06 14:02:53;;;;;;;7.05;4.90;;;11.50;99.90;;;;;;4933272;29;20226;-70
2022/04/06 14:05:20;;;;;;;4.03;3.90;;;11.50;99.90;;;;;;4934278;29;20269;-70
2022/04/06 14:07:47;;;;;;;5.35;4.82;;;11.40;99.90;;;;;;4933644;29;20233;-70
2022/04/06 14:10:14;;;;;;;4.75;4.28;;;11.30;99.90;;;;;;4951979;29;20292;-70
2022/04/06 14:12:40;;;;;;;4.70;4.40;;;11.30;99.90;;;;;;4952940;28;20224;-70
2022/04/06 14:15:08;;;;;;;5.47;4.97;;;11.30;99.90;;;;;;4953044;28;20257;-70
2022/04/06 14:17:36;;;;;;;4.80;4.50;;;11.30;99.90;;;;;;4952309;28;20658;-70
2022/04/06 14:20:04;;;;;;;4.90;4.40;;;11.30;99.90;;;;;;4952861;28;20582;-70
2022/04/06 14:22:30;;;;;;;5.03;4.68;;;11.20;99.90;;;;;;4948955;28;20229;-71
2022/04/06 14:27:43;;;;;;;5.07;4.78;;;11.30;99.90;;;;;;4945029;29;20207;-70
2022/04/06 14:30:11;;;;;;;6.85;4.43;;;11.20;99.90;;;;;;4952567;28;20208;-71
2022/04/06 14:32:40;;;;;;;5.60;5.10;;;11.30;99.90;;;;;;4952359;28;20233;-70
2022/04/06 14:35:07;;;;;;;5.32;4.90;;;11.30;99.90;;;;;;4951044;28;20209;-71
2022/04/06 14:37:34;;;;;;;5.85;5.43;;;11.20;99.90;;;;;;4952235;28;20232;-71
2022/04/06 14:40:03;;;;;;;6.00;5.50;;;11.10;99.90;;;;;;4952371;28;20220;-71
2022/04/06 14:42:30;;;;;;;7.03;6.32;;;11.00;99.90;;;;;;4952722;28;20268;-71
2022/04/06 14:44:57;;;;;;;7.47;6.88;;;10.90;99.90;;;;;;4946128;28;20209;-71
2022/04/06 14:47:25;;;;;;;6.60;5.93;;;10.90;99.90;;;;;;4952407;28;20205;-71
2022/04/06 14:49:53;;;;;;;6.72;6.13;;;10.90;99.90;;;;;;4952008;28;20683;-72
2022/04/06 14:52:20;;;;;;;6.93;6.20;;;11.00;99.90;;;;;;4952078;28;20368;-71
2022/04/06 14:54:47;;;;;;;6.97;6.38;;;11.00;99.90;;;;;;4952436;28;20223;-71
2022/04/06 14:57:14;;;;;;;8.48;6.78;;;10.90;99.90;;;;;;4952084;28;20781;-71
2022/04/06 14:59:41;;;;;;;7.53;6.28;;;10.90;99.90;;;;;;4951961;28;20260;-71
2022/04/06 15:02:09;;;;;;;5.78;5.38;;;10.90;99.90;;;;;;4948923;28;20333;-71
2022/04/06 15:04:36;;;;;;;5.90;5.53;;;10.90;99.90;;;;;;4945163;28;20213;-71
2022/04/06 15:07:04;;;;;;;6.22;5.82;;;10.80;99.90;;;;;;4951748;28;20252;-71
2022/04/06 15:09:31;;;;;;;7.05;6.45;;;10.80;99.90;;;;;;4952218;28;20205;-71
2022/04/06 15:11:58;;;;;;;8.43;7.60;;;10.80;99.90;;;;;;4953510;28;20237;-70
2022/04/06 15:14:25;;;;;;;8.75;6.88;;;10.80;99.90;;;;;;4952913;28;20209;-71
2022/04/06 15:16:54;;;;;;;8.02;7.22;;;10.80;99.90;;;;;;4952175;28;20229;-70
2022/04/06 15:19:21;;;;;;;11.25;7.65;;;10.80;99.90;;;;;;4947021;28;20226;-71
2022/04/06 15:21:47;;;;;;;9.88;8.88;;;10.80;99.90;;;;;;4951528;28;20506;-71
2022/04/06 15:24:16;;;;;;;8.50;7.78;;;10.80;99.90;;;;;;4952059;28;20570;-70
2022/04/06 15:26:43;;;;;;;8.13;7.28;;;10.70;99.90;;;;;;4952723;28;20256;-71
2022/04/06 15:29:09;;;;;;;8.13;7.00;;;10.70;99.90;;;;;;4952362;28;20474;-70
2022/04/06 15:31:36;;;;;;;8.13;7.38;;;10.70;99.90;;;;;;4950984;28;20702;-70
2022/04/06 15:34:03;;;;;;;7.60;6.90;;;10.70;99.90;;;;;;4952032;28;20260;-70
2022/04/06 15:39:16;;;;;;;6.72;6.15;;;10.70;99.90;;;;;;4943765;28;20669;-70
2022/04/06 15:41:43;;;;;;;7.57;6.22;;;10.60;99.90;;;;;;4951856;28;20340;-69
2022/04/06 15:44:10;;;;;;;6.95;6.45;;;10.60;99.90;;;;;;4949954;28;20309;-70
2022/04/06 15:46:37;;;;;;;6.80;6.30;;;10.60;99.90;;;;;;4948946;29;20248;-70
2022/04/06 15:50:22;;;;;;;8.32;7.53;;;10.60;99.90;;;;;;5086648;27;20561;-70
2022/04/06 15:52:49;;;;;;;8.18;7.38;;;10.70;99.90;;;;;;5069767;28;20208;-69
2022/04/06 15:55:17;;;;;;;7.45;6.40;;;10.70;99.90;;;;;;5064576;28;20259;-70
2022/04/06 15:57:44;;;;;;;6.25;5.75;;;10.70;99.90;;;;;;5063740;28;20732;-70
2022/04/06 16:00:11;;;;;;;6.70;6.10;;;10.70;99.90;;;;;;5061433;28;20619;-70
2022/04/06 16:02:38;;;;;;;5.97;5.65;;;10.70;99.90;;;;;;5059959;28;20233;-71
2022/04/06 16:05:05;;;;;;;6.75;6.00;;;10.60;99.90;;;;;;5067225;28;20197;-70
2022/04/06 16:07:33;;;;;;;6.13;5.63;;;10.60;99.90;;;;;;5066787;28;20229;-69
2022/04/06 16:10:00;;;;;;;5.30;4.90;;;10.60;99.90;;;;;;5073825;28;20258;-70
2022/04/06 16:12:27;;;;;;;6.28;5.78;;;10.60;99.90;;;;;;5077916;28;20295;-70
2022/04/06 16:14:54;;;;;;;10.88;5.20;;;10.60;99.90;;;;;;5070635;28;20213;-70
2022/04/06 16:17:20;;;;;;;6.28;5.68;;;10.60;99.90;;;;;;5062901;28;20205;-70
2022/04/06 16:19:49;;;;;;;4.80;4.43;;;10.60;99.90;;;;;;5065166;28;20212;-70
2022/04/06 16:22:16;;;;;;;4.80;4.50;;;10.60;99.90;;;;;;5060112;28;20237;-70
2022/04/06 16:24:44;;;;;;;5.50;5.18;;;10.60;99.90;;;;;;5047890;28;20647;-69
2022/04/06 16:27:10;;;;;;;5.35;4.85;;;10.60;99.90;;;;;;5052993;28;20240;-70
2022/04/06 16:29:38;;;;;;;5.00;4.60;;;10.60;99.90;;;;;;5059607;28;20233;-69
2022/04/06 16:32:05;;;;;;;5.43;5.13;;;10.60;99.90;;;;;;5066268;28;20376;-71
2022/04/06 16:34:32;;;;;;;6.05;5.55;;;10.60;99.90;;;;;;5060234;28;20292;-70
2022/04/06 16:37:00;;;;;;;4.90;4.60;;;10.60;99.90;;;;;;5067425;28;20201;-70
2022/04/06 16:39:27;;;;;;;4.70;4.43;;;10.60;99.90;;;;;;5064654;28;20197;-69
2022/04/06 16:41:56;;;;;;;6.28;5.82;;;10.60;99.90;;;;;;5059115;28;20279;-70
2022/04/06 16:44:25;;;;;;;5.55;5.10;;;10.60;99.90;;;;;;5064141;28;20202;-70
2022/04/06 16:46:52;;;;;;;5.50;5.15;;;10.60;99.90;;;;;;5066514;28;20201;-69
2022/04/06 16:49:18;;;;;;;4.78;4.47;;;10.50;99.90;;;;;;5077774;28;20233;-70
2022/04/06 16:54:29;;;;;;;5.72;5.22;;;10.50;99.90;;;;;;5059307;28;20284;-70
2022/04/06 16:56:57;;;;;;;7.05;5.10;;;10.50;99.90;;;;;;5055233;28;20574;-70
2022/04/06 16:59:24;;;;;;;5.95;5.45;;;10.50;99.90;;;;;;5050740;28;20298;-70
2022/04/06 17:01:51;;;;;;;6.00;5.40;;;10.50;99.90;;;;;;5033122;28;20719;-70
2022/04/06 17:04:18;;;;;;;5.70;5.22;;;10.50;99.90;;;;;;5053716;28;20202;-70